sensor_id;sensor_type;location;lat;lon;timestamp;pressure;altitude;pressure_sealevel;temperature;humidity
13124;BME280;6627;50.920;12.050;2022-08-14T00:01:15;99211.41;;;21.35;73.20
13124;BME280;6627;50.920;12.050;2022-08-14T00:03:42;99160.56;;;20.78;73.49
13124;BME280;6627;50.920;12.050;2022-08-14T00:06:11;99180.09;;;20.73;74.98
13124;BME280;6627;50.920;12.050;2022-08-14T00:08:38;99205.41;;;21.14;74.32
13124;BME280;6627;50.920;12.050;2022-08-14T00:11:06;99192.50;;;21.34;72.25
13124;BME280;6627;50.920;12.050;2022-08-14T00:13:34;99199.53;;;21.31;72.54
13124;BME280;6627;50.920;12.050;2022-08-14T00:16:03;99223.19;;;21.71;71.82
13124;BME280;6627;50.920;12.050;2022-08-14T00:18:30;99168.44;;;21.15;71.50
13124;BME280;6627;50.920;12.050;2022-08-14T00:20:58;99161.47;;;20.51;74.22
13124;BME280;6627;50.920;12.050;2022-08-14T00:23:27;99187.78;;;20.99;73.52
13124;BME280;6627;50.920;12.050;2022-08-14T00:25:54;99156.41;;;20.37;75.47
13124;BME280;6627;50.920;12.050;2022-08-14T00:28:23;99202.75;;;21.02;75.06
13124;BME280;6627;50.920;12.050;2022-08-14T00:30:54;99226.59;;;21.84;72.15
13124;BME280;6627;50.920;12.050;2022-08-14T00:33:23;99159.09;;;20.84;72.85
13124;BME280;6627;50.920;12.050;2022-08-14T00:35:51;99177.78;;;20.75;73.91
13124;BME280;6627;50.920;12.050;2022-08-14T00:38:19;99181.31;;;20.76;74.32
13124;BME280;6627;50.920;12.050;2022-08-14T00:40:48;99151.84;;;20.45;75.07
13124;BME280;6627;50.920;12.050;2022-08-14T00:43:16;99174.50;;;20.38;76.44
13124;BME280;6627;50.920;12.050;2022-08-14T00:45:44;99202.69;;;20.63;76.49
13124;BME280;6627;50.920;12.050;2022-08-14T00:48:12;99209.63;;;20.92;75.81
13124;BME280;6627;50.920;12.050;2022-08-14T00:50:39;99238.47;;;21.69;73.25
13124;BME280;6627;50.920;12.050;2022-08-14T00:53:06;99153.13;;;20.63;74.23
13124;BME280;6627;50.920;12.050;2022-08-14T00:55:36;99190.16;;;21.01;73.93
13124;BME280;6627;50.920;12.050;2022-08-14T00:58:07;99201.97;;;21.56;71.71
13124;BME280;6627;50.920;12.050;2022-08-14T01:00:52;99137.84;;;21.01;71.57
13124;BME280;6627;50.920;12.050;2022-08-14T01:03:20;99170.69;;;20.74;74.08
13124;BME280;6627;50.920;12.050;2022-08-14T01:05:50;99208.16;;;21.69;71.88
13124;BME280;6627;50.920;12.050;2022-08-14T01:08:20;99149.72;;;21.05;71.71
13124;BME280;6627;50.920;12.050;2022-08-14T01:10:48;99182.78;;;21.24;72.10
13124;BME280;6627;50.920;12.050;2022-08-14T01:13:23;99141.94;;;20.56;73.20
13124;BME280;6627;50.920;12.050;2022-08-14T01:15:54;99163.81;;;20.84;72.63
13124;BME280;6627;50.920;12.050;2022-08-14T01:18:24;99157.81;;;20.47;73.91
13124;BME280;6627;50.920;12.050;2022-08-14T01:21:10;99134.19;;;19.82;76.64
13124;BME280;6627;50.920;12.050;2022-08-14T01:23:46;99141.03;;;19.88;77.78
13124;BME280;6627;50.920;12.050;2022-08-14T01:26:20;99156.56;;;20.12;77.58
13124;BME280;6627;50.920;12.050;2022-08-14T01:28:50;99180.28;;;20.49;77.02
13124;BME280;6627;50.920;12.050;2022-08-14T01:31:25;99159.25;;;20.25;77.38
13124;BME280;6627;50.920;12.050;2022-08-14T01:34:03;99211.78;;;21.18;74.58
13124;BME280;6627;50.920;12.050;2022-08-14T01:36:31;99142.84;;;20.60;73.95
13124;BME280;6627;50.920;12.050;2022-08-14T01:39:10;99165.41;;;20.50;75.29
13124;BME280;6627;50.920;12.050;2022-08-14T01:41:40;99114.94;;;19.82;76.48
13124;BME280;6627;50.920;12.050;2022-08-14T01:44:12;99131.97;;;19.72;78.19
13124;BME280;6627;50.920;12.050;2022-08-14T01:46:43;99154.88;;;20.08;78.39
13124;BME280;6627;50.920;12.050;2022-08-14T01:49:13;99122.53;;;20.01;77.22
13124;BME280;6627;50.920;12.050;2022-08-14T01:51:41;99157.28;;;20.25;78.11
13124;BME280;6627;50.920;12.050;2022-08-14T01:54:14;99160.97;;;20.80;74.91
13124;BME280;6627;50.920;12.050;2022-08-14T01:56:42;99141.75;;;20.17;76.50
13124;BME280;6627;50.920;12.050;2022-08-14T01:59:21;99164.59;;;20.84;74.62
13124;BME280;6627;50.920;12.050;2022-08-14T02:01:52;99162.50;;;21.13;72.61
13124;BME280;6627;50.920;12.050;2022-08-14T02:04:22;99161.63;;;21.09;72.00
13124;BME280;6627;50.920;12.050;2022-08-14T02:06:50;99166.47;;;21.31;71.69
13124;BME280;6627;50.920;12.050;2022-08-14T02:09:19;99104.78;;;20.81;70.55
13124;BME280;6627;50.920;12.050;2022-08-14T02:11:49;99111.31;;;20.26;72.77
13124;BME280;6627;50.920;12.050;2022-08-14T02:14:16;99114.78;;;20.38;72.64
13124;BME280;6627;50.920;12.050;2022-08-14T02:16:48;99135.09;;;20.34;73.37
13124;BME280;6627;50.920;12.050;2022-08-14T02:19:21;99157.75;;;20.59;73.77
13124;BME280;6627;50.920;12.050;2022-08-14T02:21:52;99112.66;;;20.16;73.84
13124;BME280;6627;50.920;12.050;2022-08-14T02:24:24;99131.84;;;20.28;74.21
13124;BME280;6627;50.920;12.050;2022-08-14T02:26:54;99094.09;;;19.65;75.33
13124;BME280;6627;50.920;12.050;2022-08-14T02:29:26;99098.06;;;19.52;76.83
13124;BME280;6627;50.920;12.050;2022-08-14T02:31:56;99113.88;;;19.71;77.18
13124;BME280;6627;50.920;12.050;2022-08-14T02:34:26;99119.56;;;19.78;77.53
13124;BME280;6627;50.920;12.050;2022-08-14T02:36:56;99098.59;;;19.58;77.21
13124;BME280;6627;50.920;12.050;2022-08-14T02:39:26;99102.97;;;19.47;78.20
13124;BME280;6627;50.920;12.050;2022-08-14T02:41:53;99135.09;;;19.86;78.04
13124;BME280;6627;50.920;12.050;2022-08-14T02:44:20;99102.47;;;19.85;76.63
13124;BME280;6627;50.920;12.050;2022-08-14T02:46:50;99060.25;;;19.33;77.54
13124;BME280;6627;50.920;12.050;2022-08-14T02:49:18;99090.28;;;19.42;78.13
13124;BME280;6627;50.920;12.050;2022-08-14T02:51:55;99084.53;;;19.31;78.93
13124;BME280;6627;50.920;12.050;2022-08-14T02:54:25;99114.28;;;19.57;78.72
13124;BME280;6627;50.920;12.050;2022-08-14T02:56:55;99120.88;;;19.69;78.54
13124;BME280;6627;50.920;12.050;2022-08-14T02:59:26;99137.97;;;20.06;77.52
13124;BME280;6627;50.920;12.050;2022-08-14T03:01:54;99130.66;;;20.13;76.31
13124;BME280;6627;50.920;12.050;2022-08-14T03:04:23;99123.75;;;20.04;76.66
13124;BME280;6627;50.920;12.050;2022-08-14T03:06:53;99145.84;;;20.23;76.60
13124;BME280;6627;50.920;12.050;2022-08-14T03:09:21;99151.38;;;20.55;75.30
13124;BME280;6627;50.920;12.050;2022-08-14T03:11:50;99158.78;;;20.70;74.34
13124;BME280;6627;50.920;12.050;2022-08-14T03:14:17;99141.31;;;20.62;74.11
13124;BME280;6627;50.920;12.050;2022-08-14T03:16:47;99141.56;;;20.73;73.62
13124;BME280;6627;50.920;12.050;2022-08-14T03:19:16;99121.19;;;20.11;75.36
13124;BME280;6627;50.920;12.050;2022-08-14T03:21:43;99119.06;;;19.88;76.85
13124;BME280;6627;50.920;12.050;2022-08-14T03:24:11;99109.34;;;19.79;76.87
13124;BME280;6627;50.920;12.050;2022-08-14T03:26:40;99134.66;;;20.16;76.49
13124;BME280;6627;50.920;12.050;2022-08-14T03:29:12;99091.63;;;19.92;76.04
13124;BME280;6627;50.920;12.050;2022-08-14T03:31:40;99096.66;;;19.74;76.74
13124;BME280;6627;50.920;12.050;2022-08-14T03:34:09;99099.19;;;19.79;77.23
13124;BME280;6627;50.920;12.050;2022-08-14T03:36:38;99096.25;;;20.04;75.53
13124;BME280;6627;50.920;12.050;2022-08-14T03:39:10;99110.34;;;20.18;75.87
13124;BME280;6627;50.920;12.050;2022-08-14T03:41:37;99130.44;;;20.85;73.71
13124;BME280;6627;50.920;12.050;2022-08-14T03:44:06;99080.69;;;20.27;73.47
13124;BME280;6627;50.920;12.050;2022-08-14T03:46:36;99086.31;;;20.15;74.13
13124;BME280;6627;50.920;12.050;2022-08-14T03:49:04;99049.72;;;19.51;75.11
13124;BME280;6627;50.920;12.050;2022-08-14T03:51:33;99074.59;;;19.42;76.62
13124;BME280;6627;50.920;12.050;2022-08-14T03:54:04;99066.03;;;19.44;77.19
13124;BME280;6627;50.920;12.050;2022-08-14T03:56:34;99083.47;;;19.80;76.64
13124;BME280;6627;50.920;12.050;2022-08-14T03:59:05;99062.22;;;19.49;76.88
13124;BME280;6627;50.920;12.050;2022-08-14T04:01:39;99068.94;;;19.35;77.65
13124;BME280;6627;50.920;12.050;2022-08-14T04:04:08;99097.56;;;19.78;76.92
13124;BME280;6627;50.920;12.050;2022-08-14T04:06:37;99065.31;;;19.75;75.69
13124;BME280;6627;50.920;12.050;2022-08-14T04:09:06;99053.16;;;19.32;76.53
13124;BME280;6627;50.920;12.050;2022-08-14T04:11:36;99062.09;;;19.29;76.86
13124;BME280;6627;50.920;12.050;2022-08-14T04:14:04;99052.50;;;19.23;77.36
13124;BME280;6627;50.920;12.050;2022-08-14T04:16:32;99067.31;;;19.34;77.67
13124;BME280;6627;50.920;12.050;2022-08-14T04:19:01;99077.09;;;19.76;76.65
13124;BME280;6627;50.920;12.050;2022-08-14T04:21:30;99061.13;;;19.81;75.43
13124;BME280;6627;50.920;12.050;2022-08-14T04:23:59;99044.88;;;19.60;75.71
13124;BME280;6627;50.920;12.050;2022-08-14T04:26:29;99052.66;;;19.58;75.96
13124;BME280;6627;50.920;12.050;2022-08-14T04:28:58;99049.69;;;19.79;75.10
13124;BME280;6627;50.920;12.050;2022-08-14T04:31:26;99073.88;;;20.21;74.06
13124;BME280;6627;50.920;12.050;2022-08-14T04:33:53;99036.38;;;19.65;74.67
13124;BME280;6627;50.920;12.050;2022-08-14T04:36:22;99047.47;;;19.85;74.27
13124;BME280;6627;50.920;12.050;2022-08-14T04:38:49;99041.22;;;19.56;75.15
13124;BME280;6627;50.920;12.050;2022-08-14T04:41:33;99041.97;;;19.25;76.39
13124;BME280;6627;50.920;12.050;2022-08-14T04:44:19;99047.88;;;19.39;76.78
13124;BME280;6627;50.920;12.050;2022-08-14T04:46:46;99046.66;;;19.53;76.68
13124;BME280;6627;50.920;12.050;2022-08-14T04:49:27;99083.34;;;20.55;74.18
13124;BME280;6627;50.920;12.050;2022-08-14T04:51:56;99068.06;;;20.58;73.24
13124;BME280;6627;50.920;12.050;2022-08-14T04:54:26;99073.16;;;20.75;72.50
13124;BME280;6627;50.920;12.050;2022-08-14T04:56:54;99071.41;;;20.67;72.37
13124;BME280;6627;50.920;12.050;2022-08-14T04:59:22;99048.38;;;20.75;71.72
13124;BME280;6627;50.920;12.050;2022-08-14T05:01:50;99069.28;;;21.15;70.62
13124;BME280;6627;50.920;12.050;2022-08-14T05:04:19;99028.09;;;21.03;69.89
13124;BME280;6627;50.920;12.050;2022-08-14T05:06:48;99016.31;;;20.83;70.45
13124;BME280;6627;50.920;12.050;2022-08-14T05:09:17;98987.91;;;20.59;70.56
13124;BME280;6627;50.920;12.050;2022-08-14T05:11:44;98964.53;;;19.99;72.71
13124;BME280;6627;50.920;12.050;2022-08-14T05:14:12;98978.66;;;19.81;74.12
13124;BME280;6627;50.920;12.050;2022-08-14T05:16:39;98989.22;;;19.79;75.31
13124;BME280;6627;50.920;12.050;2022-08-14T05:19:07;99021.44;;;20.14;75.27
13124;BME280;6627;50.920;12.050;2022-08-14T05:21:35;99008.84;;;20.13;75.48
13124;BME280;6627;50.920;12.050;2022-08-14T05:24:03;99024.88;;;20.42;75.08
13124;BME280;6627;50.920;12.050;2022-08-14T05:26:32;99054.22;;;21.09;73.59
13124;BME280;6627;50.920;12.050;2022-08-14T05:28:59;99049.78;;;21.66;70.21
13124;BME280;6627;50.920;12.050;2022-08-14T05:31:26;99023.81;;;21.67;69.01
13124;BME280;6627;50.920;12.050;2022-08-14T05:33:53;99019.06;;;21.90;68.14
13124;BME280;6627;50.920;12.050;2022-08-14T05:36:21;98998.81;;;21.79;68.13
13124;BME280;6627;50.920;12.050;2022-08-14T05:38:48;98976.03;;;21.36;69.45
13124;BME280;6627;50.920;12.050;2022-08-14T05:41:18;98987.44;;;21.58;69.08
13124;BME280;6627;50.920;12.050;2022-08-14T05:43:47;98969.91;;;21.47;68.95
13124;BME280;6627;50.920;12.050;2022-08-14T05:46:18;98997.09;;;21.71;68.44
13124;BME280;6627;50.920;12.050;2022-08-14T05:48:48;98953.38;;;21.47;68.32
13124;BME280;6627;50.920;12.050;2022-08-14T05:51:16;98978.97;;;21.70;68.35
13124;BME280;6627;50.920;12.050;2022-08-14T05:53:43;98971.81;;;21.65;68.69
13124;BME280;6627;50.920;12.050;2022-08-14T05:56:10;98974.63;;;21.96;67.53
13124;BME280;6627;50.920;12.050;2022-08-14T05:58:38;98967.88;;;22.16;66.52
13124;BME280;6627;50.920;12.050;2022-08-14T06:01:07;98952.66;;;22.03;67.29
13124;BME280;6627;50.920;12.050;2022-08-14T06:03:35;98945.56;;;22.02;67.34
13124;BME280;6627;50.920;12.050;2022-08-14T06:06:02;98904.94;;;21.46;68.21
13124;BME280;6627;50.920;12.050;2022-08-14T06:08:31;98930.59;;;22.03;66.88
13124;BME280;6627;50.920;12.050;2022-08-14T06:11:00;98924.97;;;21.96;67.12
13124;BME280;6627;50.920;12.050;2022-08-14T06:13:29;98943.09;;;21.93;68.33
13124;BME280;6627;50.920;12.050;2022-08-14T06:15:56;98945.56;;;22.02;68.55
13124;BME280;6627;50.920;12.050;2022-08-14T06:18:24;98995.56;;;22.83;66.81
13124;BME280;6627;50.920;12.050;2022-08-14T06:20:52;98961.25;;;22.84;65.23
13124;BME280;6627;50.920;12.050;2022-08-14T06:23:20;98993.38;;;23.33;64.44
13124;BME280;6627;50.920;12.050;2022-08-14T06:25:47;98939.88;;;23.15;64.34
13124;BME280;6627;50.920;12.050;2022-08-14T06:28:18;98914.31;;;22.88;64.87
13124;BME280;6627;50.920;12.050;2022-08-14T06:30:47;98912.28;;;23.19;64.18
13124;BME280;6627;50.920;12.050;2022-08-14T06:33:17;98895.19;;;23.06;64.63
13124;BME280;6627;50.920;12.050;2022-08-14T06:35:46;98952.75;;;23.41;65.09
13124;BME280;6627;50.920;12.050;2022-08-14T06:38:16;98958.22;;;23.75;64.46
13124;BME280;6627;50.920;12.050;2022-08-14T06:40:45;98918.88;;;23.48;64.11
13124;BME280;6627;50.920;12.050;2022-08-14T06:43:14;98910.66;;;23.14;65.17
13124;BME280;6627;50.920;12.050;2022-08-14T06:45:45;98951.47;;;23.69;65.24
13124;BME280;6627;50.920;12.050;2022-08-14T06:48:15;98921.56;;;23.88;63.86
13124;BME280;6627;50.920;12.050;2022-08-14T06:50:46;98933.19;;;24.15;63.46
13124;BME280;6627;50.920;12.050;2022-08-14T06:53:14;98908.88;;;24.53;61.55
13124;BME280;6627;50.920;12.050;2022-08-14T06:55:43;98902.19;;;24.72;60.91
13124;BME280;6627;50.920;12.050;2022-08-14T06:58:12;98882.06;;;24.93;60.58
13124;BME280;6627;50.920;12.050;2022-08-14T07:00:40;98838.88;;;24.74;60.11
13124;BME280;6627;50.920;12.050;2022-08-14T07:03:27;98819.09;;;24.69;60.51
13124;BME280;6627;50.920;12.050;2022-08-14T07:06:14;98835.72;;;25.04;60.06
13124;BME280;6627;50.920;12.050;2022-08-14T07:08:43;98855.13;;;25.65;58.84
13124;BME280;6627;50.920;12.050;2022-08-14T07:11:11;98799.69;;;25.36;58.82
13124;BME280;6627;50.920;12.050;2022-08-14T07:13:39;98767.66;;;25.21;59.40
13124;BME280;6627;50.920;12.050;2022-08-14T07:16:07;98818.66;;;25.74;59.07
13124;BME280;6627;50.920;12.050;2022-08-14T07:18:39;98836.47;;;25.90;59.00
13124;BME280;6627;50.920;12.050;2022-08-14T07:21:08;98835.50;;;26.29;58.22
13124;BME280;6627;50.920;12.050;2022-08-14T07:23:37;98829.94;;;26.36;57.96
13124;BME280;6627;50.920;12.050;2022-08-14T07:26:05;98780.03;;;26.19;57.32
13124;BME280;6627;50.920;12.050;2022-08-14T07:28:35;98815.38;;;26.84;56.43
13124;BME280;6627;50.920;12.050;2022-08-14T07:31:05;98748.72;;;26.18;57.85
13124;BME280;6627;50.920;12.050;2022-08-14T07:33:39;98840.09;;;27.27;56.72
13124;BME280;6627;50.920;12.050;2022-08-14T07:36:10;98835.16;;;28.21;53.94
13124;BME280;6627;50.920;12.050;2022-08-14T07:38:39;98693.03;;;28.25;51.77
13124;BME280;6627;50.920;12.050;2022-08-14T07:41:08;98723.09;;;28.87;51.52
13124;BME280;6627;50.920;12.050;2022-08-14T07:43:36;98691.88;;;29.39;50.49
13124;BME280;6627;50.920;12.050;2022-08-14T07:46:05;98637.66;;;29.40;50.47
13124;BME280;6627;50.920;12.050;2022-08-14T07:48:37;98658.13;;;30.43;48.85
13124;BME280;6627;50.920;12.050;2022-08-14T07:51:05;98563.19;;;29.90;49.07
13124;BME280;6627;50.920;12.050;2022-08-14T07:53:33;98494.47;;;29.07;50.09
13124;BME280;6627;50.920;12.050;2022-08-14T07:56:01;98465.75;;;28.51;50.79
13124;BME280;6627;50.920;12.050;2022-08-14T07:58:28;98530.53;;;28.55;51.62
13124;BME280;6627;50.920;12.050;2022-08-14T08:00:56;98582.59;;;29.05;51.07
13124;BME280;6627;50.920;12.050;2022-08-14T08:03:24;98598.22;;;28.99;51.67
13124;BME280;6627;50.920;12.050;2022-08-14T08:05:53;98587.16;;;29.15;51.09
13124;BME280;6627;50.920;12.050;2022-08-14T08:08:21;98607.09;;;29.33;50.72
13124;BME280;6627;50.920;12.050;2022-08-14T08:10:52;98653.69;;;29.92;50.13
13124;BME280;6627;50.920;12.050;2022-08-14T08:13:22;98582.09;;;29.66;49.44
13124;BME280;6627;50.920;12.050;2022-08-14T08:15:53;98575.53;;;30.42;47.65
13124;BME280;6627;50.920;12.050;2022-08-14T08:18:23;98615.47;;;30.87;48.30
13124;BME280;6627;50.920;12.050;2022-08-14T08:20:52;98445.50;;;29.75;47.26
13124;BME280;6627;50.920;12.050;2022-08-14T08:23:21;98462.38;;;30.01;47.26
13124;BME280;6627;50.920;12.050;2022-08-14T08:25:50;98526.81;;;31.13;45.96
13124;BME280;6627;50.920;12.050;2022-08-14T08:28:19;98403.84;;;30.26;45.73
13124;BME280;6627;50.920;12.050;2022-08-14T08:30:52;98337.81;;;29.74;45.90
13124;BME280;6627;50.920;12.050;2022-08-14T08:33:22;98439.84;;;30.66;45.31
13124;BME280;6627;50.920;12.050;2022-08-14T08:35:51;98449.81;;;31.22;44.36
13124;BME280;6627;50.920;12.050;2022-08-14T08:38:23;98395.41;;;31.10;44.13
13124;BME280;6627;50.920;12.050;2022-08-14T08:40:54;98303.63;;;30.54;44.10
13124;BME280;6627;50.920;12.050;2022-08-14T08:43:24;98316.97;;;31.13;42.96
13124;BME280;6627;50.920;12.050;2022-08-14T08:45:59;98363.94;;;31.92;42.21
13124;BME280;6627;50.920;12.050;2022-08-14T08:48:29;98227.75;;;31.28;41.69
13124;BME280;6627;50.920;12.050;2022-08-14T08:50:59;98253.16;;;31.56;41.82
13124;BME280;6627;50.920;12.050;2022-08-14T08:53:30;98225.59;;;31.32;41.99
13124;BME280;6627;50.920;12.050;2022-08-14T08:55:59;98277.94;;;31.79;41.62
13124;BME280;6627;50.920;12.050;2022-08-14T08:58:27;98227.91;;;31.90;40.96
13124;BME280;6627;50.920;12.050;2022-08-14T09:00:57;98242.06;;;32.18;41.13
13124;BME280;6627;50.920;12.050;2022-08-14T09:03:27;98267.59;;;32.82;40.14
13124;BME280;6627;50.920;12.050;2022-08-14T09:05:56;98186.25;;;32.33;39.74
13124;BME280;6627;50.920;12.050;2022-08-14T09:08:29;98152.28;;;31.90;40.40
13124;BME280;6627;50.920;12.050;2022-08-14T09:10:59;98148.31;;;31.79;40.41
13124;BME280;6627;50.920;12.050;2022-08-14T09:13:27;98199.88;;;32.53;40.07
13124;BME280;6627;50.920;12.050;2022-08-14T09:15:56;98152.22;;;32.53;39.27
13124;BME280;6627;50.920;12.050;2022-08-14T09:18:23;98164.44;;;32.77;39.40
13124;BME280;6627;50.920;12.050;2022-08-14T09:20:54;98185.91;;;32.80;39.65
13124;BME280;6627;50.920;12.050;2022-08-14T09:23:22;98055.88;;;31.48;41.18
13124;BME280;6627;50.920;12.050;2022-08-14T09:25:50;98169.78;;;32.04;40.90
13124;BME280;6627;50.920;12.050;2022-08-14T09:28:19;98162.88;;;31.96;40.54
13124;BME280;6627;50.920;12.050;2022-08-14T09:30:52;98133.84;;;31.80;41.16
13124;BME280;6627;50.920;12.050;2022-08-14T09:33:51;98210.31;;;32.52;40.17
13124;BME280;6627;50.920;12.050;2022-08-14T09:36:33;98196.69;;;32.32;40.17
13124;BME280;6627;50.920;12.050;2022-08-14T09:39:19;98210.22;;;32.74;39.98
13124;BME280;6627;50.920;12.050;2022-08-14T09:42:20;98129.44;;;31.70;41.21
13124;BME280;6627;50.920;12.050;2022-08-14T09:45:05;98214.13;;;32.77;39.93
13124;BME280;6627;50.920;12.050;2022-08-14T09:47:51;98179.44;;;33.11;38.16
13124;BME280;6627;50.920;12.050;2022-08-14T09:50:24;98182.91;;;33.52;38.42
13124;BME280;6627;50.920;12.050;2022-08-14T09:52:56;98058.34;;;32.94;37.78
13124;BME280;6627;50.920;12.050;2022-08-14T09:55:25;98089.63;;;33.02;38.60
13124;BME280;6627;50.920;12.050;2022-08-14T09:58:08;98075.44;;;33.14;37.64
13124;BME280;6627;50.920;12.050;2022-08-14T10:00:44;98164.22;;;33.91;37.76
13124;BME280;6627;50.920;12.050;2022-08-14T10:03:23;98009.41;;;33.56;36.04
13124;BME280;6627;50.920;12.050;2022-08-14T10:06:05;97950.28;;;32.80;37.29
13124;BME280;6627;50.920;12.050;2022-08-14T10:08:45;98041.03;;;33.66;36.80
13124;BME280;6627;50.920;12.050;2022-08-14T10:11:15;98036.38;;;33.86;36.42
13124;BME280;6627;50.920;12.050;2022-08-14T10:13:46;97996.34;;;33.44;37.11
13124;BME280;6627;50.920;12.050;2022-08-14T10:16:20;97904.22;;;32.72;36.93
13124;BME280;6627;50.920;12.050;2022-08-14T10:19:01;97976.34;;;33.42;35.77
13124;BME280;6627;50.920;12.050;2022-08-14T10:21:32;97888.00;;;32.76;36.06
13124;BME280;6627;50.920;12.050;2022-08-14T10:23:59;97873.41;;;32.45;36.81
13124;BME280;6627;50.920;12.050;2022-08-14T10:26:27;97974.78;;;33.40;35.58
13124;BME280;6627;50.920;12.050;2022-08-14T10:29:05;97896.28;;;33.22;35.06
13124;BME280;6627;50.920;12.050;2022-08-14T10:31:36;97871.72;;;33.32;34.81
13124;BME280;6627;50.920;12.050;2022-08-14T10:34:07;97889.06;;;33.30;35.13
13124;BME280;6627;50.920;12.050;2022-08-14T10:36:38;97892.88;;;33.75;34.29
13124;BME280;6627;50.920;12.050;2022-08-14T10:39:15;97909.13;;;33.71;35.12
13124;BME280;6627;50.920;12.050;2022-08-14T10:41:44;97849.25;;;33.65;33.79
13124;BME280;6627;50.920;12.050;2022-08-14T10:44:15;97793.09;;;33.17;34.45
13124;BME280;6627;50.920;12.050;2022-08-14T10:46:45;97802.81;;;33.31;34.18
13124;BME280;6627;50.920;12.050;2022-08-14T10:49:22;97861.38;;;33.71;34.38
13124;BME280;6627;50.920;12.050;2022-08-14T10:52:03;97749.25;;;33.44;33.66
13124;BME280;6627;50.920;12.050;2022-08-14T10:54:35;97911.78;;;34.37;33.76
13124;BME280;6627;50.920;12.050;2022-08-14T10:57:15;97750.66;;;34.02;32.44
13124;BME280;6627;50.920;12.050;2022-08-14T10:59:48;97787.28;;;34.52;32.16
13124;BME280;6627;50.920;12.050;2022-08-14T11:02:23;97703.50;;;33.67;32.98
13124;BME280;6627;50.920;12.050;2022-08-14T11:05:04;97714.13;;;34.02;32.03
13124;BME280;6627;50.920;12.050;2022-08-14T11:07:35;97717.00;;;34.52;31.50
13124;BME280;6627;50.920;12.050;2022-08-14T11:10:08;97670.47;;;34.36;31.24
13124;BME280;6627;50.920;12.050;2022-08-14T11:12:43;97619.88;;;34.21;30.97
13124;BME280;6627;50.920;12.050;2022-08-14T11:15:16;97537.09;;;33.72;31.32
13124;BME280;6627;50.920;12.050;2022-08-14T11:17:45;97579.81;;;34.06;31.25
13124;BME280;6627;50.920;12.050;2022-08-14T11:20:17;97748.50;;;34.91;32.09
13124;BME280;6627;50.920;12.050;2022-08-14T11:22:50;97678.94;;;34.71;31.23
13124;BME280;6627;50.920;12.050;2022-08-14T11:25:21;97620.63;;;34.36;31.22
13124;BME280;6627;50.920;12.050;2022-08-14T11:27:52;97660.00;;;34.22;32.05
13124;BME280;6627;50.920;12.050;2022-08-14T11:30:22;97721.78;;;34.66;31.87
13124;BME280;6627;50.920;12.050;2022-08-14T11:32:51;97756.25;;;34.96;31.68
13124;BME280;6627;50.920;12.050;2022-08-14T11:35:21;97770.75;;;35.24;31.42
13124;BME280;6627;50.920;12.050;2022-08-14T11:37:53;97739.25;;;34.70;32.19
13124;BME280;6627;50.920;12.050;2022-08-14T11:40:24;97733.16;;;35.07;31.41
13124;BME280;6627;50.920;12.050;2022-08-14T11:42:54;97799.00;;;35.50;31.69
13124;BME280;6627;50.920;12.050;2022-08-14T11:45:24;97738.03;;;34.92;32.09
13124;BME280;6627;50.920;12.050;2022-08-14T11:47:52;97604.78;;;34.04;32.10
13124;BME280;6627;50.920;12.050;2022-08-14T11:50:24;97555.81;;;33.46;32.42
13124;BME280;6627;50.920;12.050;2022-08-14T11:52:53;97711.78;;;34.15;32.48
13124;BME280;6627;50.920;12.050;2022-08-14T11:55:25;97747.22;;;34.57;32.35
13124;BME280;6627;50.920;12.050;2022-08-14T11:58:00;97715.19;;;34.69;31.56
13124;BME280;6627;50.920;12.050;2022-08-14T12:00:28;97627.91;;;34.28;31.55
13124;BME280;6627;50.920;12.050;2022-08-14T12:02:59;97618.59;;;34.22;31.13
13124;BME280;6627;50.920;12.050;2022-08-14T12:05:36;97605.38;;;34.08;31.43
13124;BME280;6627;50.920;12.050;2022-08-14T12:08:06;97624.13;;;34.31;31.25
13124;BME280;6627;50.920;12.050;2022-08-14T12:10:34;97617.44;;;34.64;30.49
13124;BME280;6627;50.920;12.050;2022-08-14T12:13:14;97598.34;;;34.33;31.29
13124;BME280;6627;50.920;12.050;2022-08-14T12:15:45;97550.72;;;34.09;31.18
13124;BME280;6627;50.920;12.050;2022-08-14T12:18:14;97649.75;;;34.89;30.85
13124;BME280;6627;50.920;12.050;2022-08-14T12:20:42;97664.44;;;35.39;29.92
13124;BME280;6627;50.920;12.050;2022-08-14T12:23:23;97567.47;;;35.20;29.40
13124;BME280;6627;50.920;12.050;2022-08-14T12:26:02;97469.13;;;34.44;30.16
13124;BME280;6627;50.920;12.050;2022-08-14T12:28:29;97508.16;;;34.36;30.54
13124;BME280;6627;50.920;12.050;2022-08-14T12:30:57;97553.16;;;34.77;30.07
13124;BME280;6627;50.920;12.050;2022-08-14T12:33:26;97553.53;;;35.37;28.62
13124;BME280;6627;50.920;12.050;2022-08-14T12:35:59;97381.81;;;34.79;28.15
13124;BME280;6627;50.920;12.050;2022-08-14T12:38:37;97557.53;;;36.14;28.10
13124;BME280;6627;50.920;12.050;2022-08-14T12:41:13;97376.28;;;35.17;28.18
13124;BME280;6627;50.920;12.050;2022-08-14T12:43:45;97398.56;;;35.20;28.32
13124;BME280;6627;50.920;12.050;2022-08-14T12:46:24;97437.78;;;35.61;28.19
13124;BME280;6627;50.920;12.050;2022-08-14T12:48:53;97425.66;;;35.49;28.67
13124;BME280;6627;50.920;12.050;2022-08-14T12:51:23;97505.25;;;36.13;28.11
13124;BME280;6627;50.920;12.050;2022-08-14T12:53:54;97289.00;;;34.48;28.82
13124;BME280;6627;50.920;12.050;2022-08-14T12:56:23;97398.47;;;35.09;28.75
13124;BME280;6627;50.920;12.050;2022-08-14T12:58:53;97497.94;;;35.58;29.16
13124;BME280;6627;50.920;12.050;2022-08-14T13:01:23;97373.50;;;35.22;28.06
13124;BME280;6627;50.920;12.050;2022-08-14T13:04:02;97381.44;;;35.24;27.97
13124;BME280;6627;50.920;12.050;2022-08-14T13:06:33;97415.00;;;35.27;28.65
13124;BME280;6627;50.920;12.050;2022-08-14T13:09:03;97438.91;;;35.80;27.88
13124;BME280;6627;50.920;12.050;2022-08-14T13:11:37;97465.09;;;35.86;27.97
13124;BME280;6627;50.920;12.050;2022-08-14T13:14:06;97375.06;;;35.60;27.59
13124;BME280;6627;50.920;12.050;2022-08-14T13:16:34;97251.88;;;34.75;27.81
13124;BME280;6627;50.920;12.050;2022-08-14T13:19:02;97239.25;;;34.97;27.10